Time;durP1;ratioP1;P1;durP2;ratioP2;P2;SDS_P1;SDS_P2;PMS_P1;PMS_P2;Temp;Humidity;BMP_temperature;BMP_pressure;BME280_temperature;BME280_humidity;BME280_pressure;Samples;Min_cycle;Max_cycle;Signal;HPM_P1;HPM_P2
2023/01/05 00:02:12;;;;;;;5.00;3.20;;;;;;;8.12;89.76;99127.22;125125;1303;107495;-73
2023/01/05 00:05:18;;;;;;;6.30;3.40;;;;;;;8.14;89.97;99121.16;125198;1309;105638;-74
2023/01/05 00:08:23;;;;;;;4.50;3.40;;;;;;;8.17;89.72;99114.48;125187;1310;107546;-74
2023/01/05 00:25:05;;;;;;;4.40;3.10;;;;;;;8.20;89.77;99096.61;125181;1310;107574;-74
2023/01/05 00:28:10;;;;;;;4.00;3.20;;;;;;;8.23;89.90;99094.66;125199;1309;107546;-74
2023/01/05 00:31:16;;;;;;;4.20;3.10;;;;;;;8.25;89.98;99086.82;125153;1310;108728;-74
2023/01/05 00:34:21;;;;;;;4.20;3.00;;;;;;;8.27;89.75;99082.96;125129;1309;106292;-73
2023/01/05 00:37:30;;;;;;;2.90;2.40;;;;;;;8.28;89.67;99080.74;125180;1309;105762;-74
2023/01/05 00:40:36;;;;;;;4.90;2.90;;;;;;;8.31;89.90;99080.44;125173;1309;107457;-74
2023/01/05 00:43:41;;;;;;;3.70;3.00;;;;;;;8.34;89.68;99074.59;124920;1310;107321;-73
2023/01/05 00:46:47;;;;;;;3.10;2.60;;;;;;;8.39;89.80;99073.69;125099;1313;107601;-73
2023/01/05 00:49:53;;;;;;;4.00;2.40;;;;;;;8.40;89.75;99061.90;125149;1304;107555;-74
2023/01/05 00:52:59;;;;;;;3.10;2.40;;;;;;;8.40;89.73;99063.08;125046;1310;107200;-75
2023/01/05 00:56:04;;;;;;;4.00;2.50;;;;;;;8.43;89.89;99059.26;125177;1316;106591;-74
2023/01/05 00:59:12;;;;;;;5.40;2.80;;;;;;;8.45;90.25;99053.86;125158;1303;107302;-74
2023/01/05 01:02:18;;;;;;;3.50;2.60;;;;;;;8.47;90.30;99051.55;125123;1310;107592;-74
2023/01/05 01:05:25;;;;;;;3.10;2.10;;;;;;;8.46;90.28;99053.07;125124;1309;107604;-74
2023/01/05 01:08:30;;;;;;;3.00;2.00;;;;;;;8.46;90.56;99044.92;125153;1309;107590;-74
2023/01/05 01:11:36;;;;;;;3.80;2.80;;;;;;;8.47;90.47;99041.81;125137;1303;106730;-74
2023/01/05 01:14:42;;;;;;;4.30;2.30;;;;;;;8.49;90.68;99038.91;125175;1310;107443;-74
2023/01/05 01:17:48;;;;;;;3.40;2.30;;;;;;;8.50;90.89;99034.72;124949;1308;107408;-74
2023/01/05 01:20:53;;;;;;;3.10;2.60;;;;;;;8.51;90.93;99041.23;125161;1309;107582;-73
2023/01/05 01:23:59;;;;;;;3.50;2.40;;;;;;;8.50;90.77;99048.51;125167;1302;107662;-73
2023/01/05 01:27:04;;;;;;;2.80;2.30;;;;;;;8.52;90.84;99028.11;125116;1302;107438;-76
2023/01/05 01:30:12;;;;;;;3.60;2.50;;;;;;;8.55;91.05;99021.20;125195;1309;107675;-74
2023/01/05 01:33:17;;;;;;;3.60;2.20;;;;;;;8.55;91.16;99024.73;125216;1309;107676;-74
2023/01/05 01:36:23;;;;;;;1.90;1.70;;;;;;;8.54;91.07;99012.97;125167;1312;107486;-74
2023/01/05 01:39:30;;;;;;;2.20;1.80;;;;;;;8.54;91.07;99011.45;125147;1309;107508;-75
2023/01/05 01:42:44;;;;;;;3.90;2.10;;;;;;;8.54;91.26;99004.46;125207;1309;107594;-74
2023/01/05 01:45:49;;;;;;;2.70;1.70;;;;;;;8.56;90.99;99006.88;125178;1309;107546;-74
2023/01/05 01:49:00;;;;;;;3.20;2.20;;;;;;;8.59;91.12;99009.98;125112;1308;107595;-74
2023/01/05 01:52:08;;;;;;;2.50;1.80;;;;;;;8.60;91.33;99004.05;125160;1310;108105;-74
2023/01/05 01:55:14;;;;;;;2.20;1.50;;;;;;;8.60;91.46;98999.46;125101;1312;108617;-73
2023/01/05 01:58:23;;;;;;;3.00;2.10;;;;;;;8.60;91.42;98999.73;125188;1296;107728;-74
2023/01/05 02:01:29;;;;;;;3.50;2.10;;;;;;;8.64;91.30;98996.46;125064;1309;107389;-74
2023/01/05 02:04:36;;;;;;;4.00;1.90;;;;;;;8.67;91.39;98996.02;125164;1315;107637;-74
2023/01/05 02:07:46;;;;;;;3.10;1.90;;;;;;;8.67;91.33;98994.92;124861;1309;107709;-76
2023/01/05 02:11:02;;;;;;;2.10;1.70;;;;;;;8.68;91.34;98984.61;125164;1305;107529;-75
2023/01/05 02:14:18;;;;;;;2.30;1.90;;;;;;;8.68;91.38;98983.09;125179;1309;107563;-74
2023/01/05 02:17:36;;;;;;;3.70;2.40;;;;;;;8.71;91.24;98973.23;125193;1302;107465;-74
2023/01/05 02:21:07;;;;;;;3.00;2.30;;;;;;;8.71;91.31;98957.73;125087;1305;107573;-75
2023/01/05 02:24:48;;;;;;;3.00;2.40;;;;;;;8.70;91.23;98950.11;125172;1310;107552;-75
2023/01/05 02:28:09;;;;;;;14.00;9.40;;;;;;;8.66;91.35;98939.71;125169;1310;107592;-74
2023/01/05 02:31:19;;;;;;;4.10;2.70;;;;;;;8.65;91.38;98942.93;125148;1303;107669;-74
2023/01/05 02:34:33;;;;;;;4.00;2.60;;;;;;;8.66;91.42;98951.59;125252;1308;107551;-74
2023/01/05 02:37:46;;;;;;;3.10;2.00;;;;;;;8.68;91.28;98943.62;125182;1293;107946;-74
2023/01/05 02:40:56;;;;;;;2.60;1.80;;;;;;;8.67;91.00;98944.95;125196;1310;108727;-74
2023/01/05 02:44:03;;;;;;;3.10;1.40;;;;;;;8.62;90.96;98943.85;125203;1304;107611;-73
2023/01/05 02:47:23;;;;;;;2.40;1.40;;;;;;;8.60;91.01;98944.66;125084;1312;106799;-74
2023/01/05 02:50:35;;;;;;;1.70;1.40;;;;;;;8.59;90.94;98937.61;125062;1303;107543;-74
2023/01/05 02:53:41;;;;;;;;;;;;;;;8.60;91.14;98932.95;125170;1310;106661;-74
2023/01/05 02:56:54;;;;;;;1.80;1.40;;;;;;;8.61;91.38;98925.34;125191;1310;107359;-73
2023/01/05 03:00:00;;;;;;;2.30;1.50;;;;;;;8.60;91.32;98917.17;125211;1309;107549;-76
2023/01/05 03:03:14;;;;;;;1.90;1.30;;;;;;;8.60;91.33;98921.27;125199;1309;108149;-70
2023/01/05 03:06:25;;;;;;;2.10;1.50;;;;;;;8.61;91.19;98924.61;125076;1309;107570;-73
2023/01/05 03:09:35;;;;;;;2.10;1.40;;;;;;;8.65;91.41;98920.43;125089;1309;108070;-70
2023/01/05 03:16:08;;;;;;;2.70;1.40;;;;;;;8.68;91.38;98914.54;125114;1308;108197;-70
2023/01/05 03:19:39;;;;;;;1.50;1.00;;;;;;;8.66;91.36;98904.98;124980;1310;107583;-71
2023/01/05 03:36:47;;;;;;;1.20;0.80;;;;;;;8.69;91.71;98877.74;125147;1309;107508;-71
2023/01/05 03:39:53;;;;;;;1.30;0.80;;;;;;;8.70;91.89;98885.98;125258;1309;107568;-71
2023/01/05 03:42:59;;;;;;;2.10;0.70;;;;;;;8.72;91.73;98882.48;125187;1309;107539;-72
2023/01/05 03:46:14;;;;;;;1.50;1.00;;;;;;;8.74;91.78;98875.70;125014;1312;107569;-71
2023/01/05 03:49:22;;;;;;;2.30;1.00;;;;;;;8.71;91.88;98878.32;125167;1310;107701;-72
2023/01/05 03:52:28;;;;;;;0.90;0.70;;;;;;;8.70;91.68;98875.07;125167;1309;107516;-71
2023/01/05 03:55:34;;;;;;;2.50;1.00;;;;;;;8.71;91.86;98868.75;125154;1306;107548;-71
2023/01/05 03:58:40;;;;;;;2.50;1.50;;;;;;;8.71;91.63;98877.63;125122;1313;107556;-71
2023/01/05 04:01:46;;;;;;;3.60;1.90;;;;;;;8.74;91.46;98873.02;125202;1309;107485;-71
2023/01/05 04:04:53;;;;;;;4.60;1.90;;;;;;;8.75;91.46;98872.92;125163;1305;107688;-71
2023/01/05 04:08:00;;;;;;;1.90;0.90;;;;;;;8.75;91.43;98883.26;125132;1309;107581;-71
2023/01/05 04:11:15;;;;;;;1.20;0.70;;;;;;;8.71;91.30;98888.80;125194;1309;107569;-71
2023/01/05 04:14:22;;;;;;;1.90;1.10;;;;;;;8.70;91.29;98882.63;125275;1307;107495;-72
2023/01/05 04:17:28;;;;;;;1.80;1.10;;;;;;;8.70;91.31;98884.31;125153;1309;107419;-71
2023/01/05 04:20:33;;;;;;;2.40;0.70;;;;;;;8.70;91.07;98887.57;125158;1303;107613;-71
2023/01/05 04:23:40;;;;;;;1.50;0.80;;;;;;;8.65;91.15;98884.14;125141;1309;107503;-71
2023/01/05 04:26:46;;;;;;;4.10;2.50;;;;;;;8.65;91.26;98896.04;125182;1309;107555;-72
2023/01/05 04:29:51;;;;;;;91.80;31.40;;;;;;;8.66;90.97;98901.39;125227;1309;107611;-71
2023/01/05 04:32:57;;;;;;;13.00;3.80;;;;;;;8.69;91.02;98904.42;125200;1310;107577;-72
2023/01/05 04:36:04;;;;;;;8.40;2.10;;;;;;;8.67;90.95;98905.73;125175;1309;108736;-71
2023/01/05 04:39:10;;;;;;;3.70;1.10;;;;;;;8.64;90.85;98909.73;125161;1309;107511;-71
2023/01/05 04:42:16;;;;;;;2.30;1.50;;;;;;;8.63;90.74;98909.87;125185;1310;107549;-71
2023/01/05 04:45:22;;;;;;;1.90;0.80;;;;;;;8.63;90.78;98908.89;125220;1309;107545;-71
2023/01/05 04:48:30;;;;;;;1.60;0.80;;;;;;;8.62;90.64;98914.83;124995;1310;107351;-72
2023/01/05 04:51:36;;;;;;;169.20;47.40;;;;;;;8.59;90.70;98923.90;125141;1309;108679;-71
2023/01/05 04:54:42;;;;;;;9.40;3.20;;;;;;;8.57;90.69;98922.83;125202;1309;107554;-71
2023/01/05 04:57:48;;;;;;;54.00;17.50;;;;;;;8.55;90.65;98922.96;125233;1309;107541;-72
2023/01/05 05:00:55;;;;;;;189.30;62.50;;;;;;;8.56;90.71;98919.88;125242;1302;107575;-71
2023/01/05 05:04:01;;;;;;;49.00;17.90;;;;;;;8.56;90.72;98913.29;125192;1309;107391;-72
2023/01/05 05:07:07;;;;;;;11.80;6.40;;;;;;;8.57;90.62;98911.42;125161;1303;106285;-72
2023/01/05 05:10:16;;;;;;;107.20;60.10;;;;;;;8.55;90.54;98905.95;125181;1295;107428;-72
2023/01/05 05:13:22;;;;;;;54.80;30.20;;;;;;;8.58;90.62;98908.48;125188;1309;106726;-72
2023/01/05 05:16:30;;;;;;;150.10;88.60;;;;;;;8.64;90.65;98904.86;125283;1309;107489;-72
2023/01/05 05:19:37;;;;;;;43.10;25.50;;;;;;;8.68;90.48;98904.73;125216;1309;107517;-73
2023/01/05 05:22:45;;;;;;;47.20;31.80;;;;;;;8.69;90.33;98901.11;125169;1309;107514;-72
2023/01/05 05:25:54;;;;;;;157.10;63.40;;;;;;;8.67;90.34;98905.57;125172;1309;107519;-72
2023/01/05 05:29:00;;;;;;;59.00;24.30;;;;;;;8.65;90.41;98907.02;125091;1303;107521;-72
2023/01/05 05:32:06;;;;;;;50.10;20.30;;;;;;;8.68;90.35;98905.11;125175;1309;108201;-71
2023/01/05 05:35:12;;;;;;;315.50;107.30;;;;;;;8.70;90.34;98906.78;125152;1303;107559;-72
2023/01/05 05:38:17;;;;;;;319.10;105.60;;;;;;;8.72;90.19;98910.83;125195;1309;107600;-74
2023/01/05 05:41:23;;;;;;;615.50;218.80;;;;;;;8.70;90.20;98905.66;125177;1316;107531;-75
2023/01/05 05:44:28;;;;;;;540.10;216.30;;;;;;;8.67;90.19;98909.27;125232;1309;107412;-76
2023/01/05 05:47:34;;;;;;;82.60;33.90;;;;;;;8.67;90.22;98913.95;125370;1308;108734;-78
2023/01/05 05:50:39;;;;;;;128.60;53.20;;;;;;;8.68;90.26;98916.50;125452;1309;107674;-77
2023/01/05 05:53:45;;;;;;;88.30;34.40;;;;;;;8.71;89.93;98914.76;125424;1308;107942;-77
2023/01/05 05:56:50;;;;;;;116.10;51.60;;;;;;;8.73;90.18;98915.75;125371;1303;107391;-77
2023/01/05 05:59:56;;;;;;;6.40;2.90;;;;;;;8.72;89.98;98916.12;125374;1302;107378;-78
2023/01/05 06:03:02;;;;;;;33.70;19.40;;;;;;;8.65;89.84;98919.11;125346;1301;108107;-78
2023/01/05 06:06:08;;;;;;;33.40;21.10;;;;;;;8.60;89.98;98920.90;125277;1292;107268;-78
2023/01/05 06:09:14;;;;;;;18.70;13.70;;;;;;;8.61;90.14;98915.03;125259;1295;109172;-78
2023/01/05 06:12:19;;;;;;;3.20;2.10;;;;;;;8.66;89.86;98920.70;125375;1295;105532;-78
2023/01/05 06:15:25;;;;;;;4.00;2.30;;;;;;;8.71;89.96;98912.79;125331;1285;107600;-79
2023/01/05 06:18:30;;;;;;;3.60;2.00;;;;;;;8.72;89.79;98917.58;125232;1302;107298;-78
2023/01/05 06:21:36;;;;;;;170.70;71.50;;;;;;;8.74;89.60;98915.98;125233;1299;107524;-78
2023/01/05 06:24:42;;;;;;;100.80;40.90;;;;;;;8.76;89.60;98921.71;125201;1311;107574;-77
2023/01/05 06:27:47;;;;;;;307.30;116.60;;;;;;;8.81;89.60;98916.00;125194;1296;107549;-77
2023/01/05 06:30:53;;;;;;;304.00;115.70;;;;;;;8.86;89.45;98922.06;125239;1309;107361;-77
2023/01/05 06:33:58;;;;;;;212.70;71.80;;;;;;;8.87;89.53;98922.31;125194;1309;107391;-76
2023/01/05 06:37:05;;;;;;;242.30;87.10;;;;;;;8.83;89.90;98925.77;125155;1309;107543;-76
2023/01/05 06:40:12;;;;;;;165.50;72.70;;;;;;;8.77;90.44;98925.23;125209;1310;106026;-76
2023/01/05 06:43:18;;;;;;;103.30;45.00;;;;;;;8.74;90.57;98922.56;125284;1302;107443;-76
2023/01/05 06:46:23;;;;;;;98.50;46.20;;;;;;;8.72;90.56;98922.93;125235;1310;107313;-75
2023/01/05 06:49:29;;;;;;;79.60;42.40;;;;;;;8.73;90.78;98929.88;125145;1309;106452;-75
2023/01/05 06:52:38;;;;;;;51.00;30.50;;;;;;;8.72;90.69;98928.82;125151;1309;108148;-76
2023/01/05 06:55:45;;;;;;;25.30;15.20;;;;;;;8.72;90.70;98931.80;125172;1316;107475;-79
2023/01/05 06:58:51;;;;;;;41.00;27.60;;;;;;;8.73;90.97;98927.81;125263;1294;107584;-79
2023/01/05 07:01:57;;;;;;;25.50;18.20;;;;;;;8.73;91.30;98931.91;125323;1309;107437;-79
2023/01/05 07:05:02;;;;;;;10.90;8.10;;;;;;;8.75;91.20;98933.59;125293;1304;107304;-81
2023/01/05 07:08:08;;;;;;;7.90;5.80;;;;;;;8.74;91.27;98933.50;125362;1310;106638;-79
2023/01/05 07:11:14;;;;;;;79.20;31.50;;;;;;;8.73;91.44;98937.59;125244;1303;108175;-77
2023/01/05 07:14:20;;;;;;;332.60;119.70;;;;;;;8.70;91.67;98938.43;125247;1310;107544;-77
2023/01/05 07:17:26;;;;;;;370.70;147.30;;;;;;;8.73;91.59;98940.78;125273;1309;107558;-78
2023/01/05 07:20:31;;;;;;;287.70;101.80;;;;;;;8.76;91.46;98947.45;125324;1302;107438;-77
2023/01/05 07:23:37;;;;;;;297.10;120.40;;;;;;;8.74;91.41;98952.48;125201;1311;107575;-78
2023/01/05 07:26:43;;;;;;;135.50;49.70;;;;;;;8.76;91.40;98950.84;125306;1302;107564;-79
2023/01/05 07:29:48;;;;;;;133.20;52.40;;;;;;;8.76;91.50;98961.16;125368;1309;108711;-79
2023/01/05 07:32:57;;;;;;;198.50;74.60;;;;;;;8.75;91.39;98955.07;125242;1302;107529;-79
2023/01/05 07:36:04;;;;;;;189.70;69.80;;;;;;;8.78;91.38;98953.29;125228;1309;107605;-78
2023/01/05 07:39:09;;;;;;;425.70;199.00;;;;;;;8.80;91.23;98953.71;125208;1306;107506;-78
2023/01/05 07:42:15;;;;;;;41.60;20.40;;;;;;;8.79;91.26;98954.70;125208;1310;107568;-77
2023/01/05 07:45:21;;;;;;;47.00;27.20;;;;;;;8.79;91.20;98958.94;125249;1310;107673;-77
2023/01/05 07:48:27;;;;;;;19.50;9.70;;;;;;;8.83;91.04;98953.89;125190;1310;107705;-77
2023/01/05 07:51:32;;;;;;;19.00;10.70;;;;;;;8.83;90.73;98957.82;125229;1309;107359;-77
2023/01/05 07:54:38;;;;;;;19.80;11.80;;;;;;;8.82;91.01;98954.53;125197;1295;107627;-78
2023/01/05 07:57:45;;;;;;;12.80;7.90;;;;;;;8.83;90.73;98962.11;125292;1303;107539;-78
2023/01/05 08:00:51;;;;;;;21.20;15.40;;;;;;;8.86;90.66;98957.17;125354;1295;107554;-80
2023/01/05 08:03:57;;;;;;;14.50;9.50;;;;;;;8.93;90.62;98967.71;125177;1303;131794;-78
2023/01/05 08:07:03;;;;;;;30.90;19.90;;;;;;;8.98;90.38;98966.55;125176;1308;106439;-78
2023/01/05 08:10:29;;;;;;;15.90;7.50;;;;;;;8.99;90.09;98968.54;125182;1309;107549;-78
2023/01/05 08:16:58;;;;;;;8.30;4.20;;;;;;;8.96;89.68;98982.39;125280;1295;107727;-78
2023/01/05 08:20:03;;;;;;;16.30;9.00;;;;;;;8.96;89.80;98983.12;125242;1303;107465;-77
2023/01/05 08:23:09;;;;;;;8.20;4.80;;;;;;;8.97;89.30;98985.55;125227;1294;107529;-77
2023/01/05 08:26:17;;;;;;;9.40;3.50;;;;;;;8.97;89.32;98990.60;125256;1302;107416;-77
2023/01/05 08:29:22;;;;;;;9.80;4.30;;;;;;;8.96;88.58;98995.04;125252;1293;107609;-77
2023/01/05 08:32:28;;;;;;;6.80;1.90;;;;;;;8.88;88.16;98995.00;125219;1316;108539;-77
2023/01/05 08:35:33;;;;;;;3.80;1.50;;;;;;;8.85;88.15;99006.55;125221;1301;107561;-78
2023/01/05 08:38:46;;;;;;;4.70;2.10;;;;;;;8.84;88.76;99008.66;125227;1310;106721;-78
2023/01/05 08:41:52;;;;;;;6.10;3.10;;;;;;;8.84;88.76;99009.52;125205;1310;108553;-77
2023/01/05 08:44:57;;;;;;;5.90;3.40;;;;;;;8.79;89.05;99009.00;125285;1303;107645;-78
2023/01/05 08:48:04;;;;;;;14.80;5.60;;;;;;;8.73;89.23;99017.14;125207;1309;105647;-78
2023/01/05 08:51:09;;;;;;;4.30;2.10;;;;;;;8.70;89.63;99013.05;125215;1309;107567;-76
2023/01/05 08:54:15;;;;;;;5.20;3.00;;;;;;;8.70;89.31;99015.02;125273;1310;107558;-77
2023/01/05 08:57:20;;;;;;;46.20;22.40;;;;;;;8.69;89.16;99022.94;125244;1296;107262;-77
2023/01/05 09:00:26;;;;;;;28.10;13.30;;;;;;;8.71;88.61;99029.00;125229;1309;106575;-75
2023/01/05 09:03:31;;;;;;;60.50;32.60;;;;;;;8.72;88.11;99031.59;125154;1309;107557;-76
2023/01/05 09:06:37;;;;;;;78.80;31.50;;;;;;;8.75;88.02;99035.05;125160;1310;107490;-76
2023/01/05 09:09:43;;;;;;;25.20;13.20;;;;;;;8.80;88.10;99036.36;125159;1310;107549;-75
2023/01/05 09:12:48;;;;;;;16.50;9.20;;;;;;;8.87;87.93;99034.17;125436;1316;106002;-76
2023/01/05 09:15:54;;;;;;;25.70;14.30;;;;;;;8.96;87.49;99029.81;125282;1310;107590;-78
2023/01/05 09:19:07;;;;;;;15.10;8.70;;;;;;;9.04;86.90;99032.45;125187;1309;107145;-77
2023/01/05 09:22:12;;;;;;;6.30;3.10;;;;;;;9.13;86.68;99029.55;125235;1310;107582;-77
2023/01/05 09:25:18;;;;;;;15.60;7.50;;;;;;;9.16;85.68;99038.20;125211;1309;107476;-76
2023/01/05 09:28:23;;;;;;;9.70;4.40;;;;;;;9.12;85.62;99042.88;125235;1303;108563;-77
2023/01/05 09:31:29;;;;;;;10.00;3.80;;;;;;;9.12;85.68;99040.92;125338;1303;107508;-76
2023/01/05 09:34:35;;;;;;;42.60;20.90;;;;;;;9.14;83.65;99044.30;125312;1312;107414;-76
2023/01/05 09:37:40;;;;;;;18.60;8.30;;;;;;;9.18;85.20;99044.15;125294;1305;107429;-76
2023/01/05 09:40:47;;;;;;;6.60;2.90;;;;;;;9.27;84.43;99045.46;125297;1303;107804;-76
2023/01/05 09:43:57;;;;;;;7.40;4.70;;;;;;;9.29;83.74;99041.84;125382;1301;108695;-78
2023/01/05 09:47:13;;;;;;;8.40;4.10;;;;;;;9.25;83.57;99050.52;125383;1309;107584;-76
2023/01/05 09:50:23;;;;;;;13.30;6.90;;;;;;;9.22;84.08;99047.76;125338;1316;107640;-76
2023/01/05 09:53:30;;;;;;;10.00;5.90;;;;;;;9.24;84.96;99042.52;125245;1309;108712;-79
2023/01/05 09:56:38;;;;;;;12.00;5.50;;;;;;;9.30;84.72;99043.70;125392;1309;107577;-77
2023/01/05 09:59:53;;;;;;;5.10;2.70;;;;;;;9.36;84.28;99051.55;125226;1309;107751;-77
2023/01/05 10:03:02;;;;;;;8.80;4.00;;;;;;;9.40;84.27;99038.61;125392;1312;108746;-75
2023/01/05 10:06:14;;;;;;;5.40;2.10;;;;;;;9.47;83.02;99044.76;125328;1312;107276;-76
2023/01/05 10:09:23;;;;;;;6.00;2.50;;;;;;;9.51;82.82;99038.19;125262;1303;107724;-78
2023/01/05 10:16:06;;;;;;;5.00;2.10;;;;;;;9.50;79.51;99045.75;125365;1304;108630;-76
2023/01/05 10:19:15;;;;;;;8.70;3.20;;;;;;;9.43;78.66;99040.46;125292;1310;108818;-75
2023/01/05 10:22:36;;;;;;;24.30;12.60;;;;;;;9.40;79.15;99046.23;125187;1307;107551;-76
2023/01/05 10:25:49;;;;;;;5.70;3.00;;;;;;;9.39;79.28;99044.61;125233;1310;107413;-76
2023/01/05 10:29:01;;;;;;;5.80;2.50;;;;;;;9.35;78.64;99043.63;125264;1306;108705;-74
2023/01/05 10:32:11;;;;;;;;;;;;;;;9.26;77.87;99044.71;125223;1309;107554;-76
2023/01/05 10:35:35;;;;;;;4.80;3.20;;;;;;;9.23;78.72;99047.12;125232;1308;107751;-77
2023/01/05 10:38:49;;;;;;;5.80;2.20;;;;;;;9.17;78.69;99045.02;125127;1308;107578;-75
2023/01/05 10:42:03;;;;;;;8.90;2.90;;;;;;;9.15;79.35;99045.69;125234;1316;107548;-78
2023/01/05 10:45:13;;;;;;;14.90;10.30;;;;;;;9.20;80.00;99040.09;125186;1309;107723;-76
2023/01/05 10:48:27;;;;;;;5.30;2.90;;;;;;;9.29;79.36;99043.49;125221;1300;107308;-76
2023/01/05 10:51:36;;;;;;;7.00;3.90;;;;;;;9.39;79.37;99034.30;125168;1312;107620;-77
2023/01/05 10:54:46;;;;;;;10.10;5.70;;;;;;;9.53;79.60;99034.01;125332;1309;108679;-76
2023/01/05 10:57:51;;;;;;;9.70;4.40;;;;;;;9.59;78.67;99030.44;125578;1303;107484;-76
2023/01/05 11:01:00;;;;;;;5.00;3.30;;;;;;;9.57;78.15;99021.23;125344;1309;107310;-78
2023/01/05 11:04:08;;;;;;;4.00;2.30;;;;;;;9.55;78.05;99026.44;125254;1303;108765;-76
2023/01/05 11:07:14;;;;;;;5.70;3.40;;;;;;;9.50;76.99;99030.93;125283;1315;107562;-76
2023/01/05 11:10:28;;;;;;;7.10;4.10;;;;;;;9.46;77.81;99028.22;125199;1309;106736;-76
2023/01/05 11:13:36;;;;;;;5.10;2.40;;;;;;;9.50;77.05;99034.70;125262;1310;106707;-76
2023/01/05 11:16:49;;;;;;;8.00;3.50;;;;;;;9.39;73.43;99040.95;125222;1309;107950;-75
2023/01/05 11:19:57;;;;;;;4.90;2.50;;;;;;;9.28;74.94;99039.34;125190;1316;107565;-77
2023/01/05 11:23:03;;;;;;;6.00;2.40;;;;;;;9.26;74.62;99038.29;125239;1310;107586;-77
2023/01/05 11:26:31;;;;;;;6.50;2.90;;;;;;;9.28;74.03;99042.48;125230;1310;108558;-77
2023/01/05 11:29:37;;;;;;;6.80;2.70;;;;;;;9.22;71.43;99064.59;125170;1316;107490;-79
2023/01/05 11:32:44;;;;;;;6.20;3.30;;;;;;;9.18;71.86;99060.15;125179;1309;107414;-77
2023/01/05 11:35:50;;;;;;;4.20;2.10;;;;;;;9.21;71.98;99059.05;125253;1316;107472;-77
2023/01/05 11:38:57;;;;;;;7.10;2.20;;;;;;;9.10;69.17;99075.09;125340;1310;105673;-77
2023/01/05 11:42:19;;;;;;;10.10;3.60;;;;;;;8.96;70.06;99065.30;125438;1308;107541;-77
2023/01/05 11:45:28;;;;;;;3.80;1.90;;;;;;;8.96;71.89;99066.80;125306;1308;107504;-77
2023/01/05 11:48:37;;;;;;;6.30;1.90;;;;;;;9.01;71.17;99066.80;125164;1310;107756;-78
2023/01/05 11:51:42;;;;;;;5.40;1.70;;;;;;;8.99;70.59;99073.90;125178;1310;107491;-77
2023/01/05 11:54:48;;;;;;;14.90;7.00;;;;;;;9.00;70.09;99073.13;125180;1309;107544;-77
2023/01/05 11:57:54;;;;;;;7.10;2.20;;;;;;;9.03;69.01;99074.09;125328;1303;107563;-78
2023/01/05 12:01:13;;;;;;;5.70;1.50;;;;;;;9.00;68.66;99071.91;125332;1310;106773;-78
2023/01/05 12:04:47;;;;;;;6.30;1.30;;;;;;;8.98;68.88;99068.75;125362;1310;107442;-78
2023/01/05 12:07:58;;;;;;;4.80;1.80;;;;;;;8.92;68.78;99065.55;125276;1303;108705;-78
2023/01/05 12:11:15;;;;;;;4.90;1.30;;;;;;;8.93;69.31;99062.08;125480;1308;107412;-78
2023/01/05 12:14:38;;;;;;;3.80;1.00;;;;;;;8.91;69.22;99065.81;125375;1303;107393;-78
2023/01/05 12:17:55;;;;;;;6.10;2.30;;;;;;;8.97;69.69;99061.38;125391;1311;107445;-79
2023/01/05 12:21:06;;;;;;;4.90;1.90;;;;;;;9.07;69.62;99061.00;125221;1317;107391;-78
2023/01/05 12:24:42;;;;;;;6.10;2.40;;;;;;;9.07;69.57;99062.51;125187;1310;106627;-77
2023/01/05 12:28:21;;;;;;;5.40;2.00;;;;;;;9.00;69.90;99050.98;125308;1299;107553;-77
2023/01/05 12:31:35;;;;;;;23.20;14.20;;;;;;;8.94;69.41;99047.15;125257;1310;108734;-77
2023/01/05 12:35:08;;;;;;;6.20;2.70;;;;;;;8.93;70.32;99047.83;125249;1310;106068;-78
2023/01/05 12:38:27;;;;;;;9.10;5.40;;;;;;;8.84;69.34;99054.34;125278;1310;107566;-77
2023/01/05 12:41:53;;;;;;;6.30;3.40;;;;;;;8.77;69.03;99055.55;125337;1313;107575;-77
2023/01/05 12:45:23;;;;;;;9.00;1.80;;;;;;;8.66;68.85;99053.40;125282;1303;107565;-77
2023/01/05 12:48:31;;;;;;;7.60;3.90;;;;;;;8.58;69.60;99050.52;125215;1310;107436;-77
2023/01/05 12:51:42;;;;;;;7.20;3.10;;;;;;;8.53;70.13;99056.51;125211;1302;107433;-77
2023/01/05 12:54:54;;;;;;;14.10;7.70;;;;;;;8.45;69.62;99057.96;125255;1312;107267;-77
2023/01/05 12:58:04;;;;;;;10.80;6.70;;;;;;;8.42;71.03;99051.52;125256;1303;107432;-77
2023/01/05 13:01:17;;;;;;;10.00;5.30;;;;;;;8.44;70.82;99054.30;125195;1316;107562;-79
2023/01/05 13:04:38;;;;;;;11.50;5.70;;;;;;;8.46;70.67;99063.31;125219;1312;108663;-77
2023/01/05 13:07:52;;;;;;;5.50;2.20;;;;;;;8.48;70.65;99065.56;125186;1309;107554;-77
2023/01/05 13:11:04;;;;;;;7.30;2.30;;;;;;;8.50;70.45;99068.91;125261;1310;107494;-77
2023/01/05 13:14:13;;;;;;;;;;;;;;;8.44;70.32;99065.91;125189;1309;107613;-77
2023/01/05 13:17:28;;;;;;;72.40;36.50;;;;;;;8.42;70.97;99065.86;125275;1306;107522;-77
2023/01/05 13:20:39;;;;;;;25.20;13.30;;;;;;;8.41;71.68;99064.77;125173;1307;106526;-77
2023/01/05 13:23:48;;;;;;;8.20;4.10;;;;;;;8.43;71.98;99071.16;125206;1316;107291;-77
2023/01/05 13:26:54;;;;;;;6.80;2.80;;;;;;;8.38;72.55;99073.09;125260;1309;106583;-77
2023/01/05 13:30:03;;;;;;;5.00;2.20;;;;;;;8.30;73.33;99078.88;125196;1310;107586;-77
2023/01/05 13:33:30;;;;;;;3.50;1.70;;;;;;;8.17;74.15;99077.67;125178;1309;107564;-76
2023/01/05 13:36:50;;;;;;;5.20;2.50;;;;;;;8.10;74.60;99076.27;125210;1310;107693;-76
2023/01/05 13:40:30;;;;;;;5.10;1.80;;;;;;;8.11;74.72;99083.63;125249;1309;107694;-76
2023/01/05 13:43:56;;;;;;;9.40;3.70;;;;;;;8.08;75.22;99082.70;125257;1315;108939;-76
2023/01/05 13:47:16;;;;;;;6.20;2.60;;;;;;;8.08;75.33;99080.70;125177;1310;107568;-76
2023/01/05 13:50:35;;;;;;;9.30;3.80;;;;;;;8.03;75.76;99090.10;125239;1313;107512;-77
2023/01/05 13:53:42;;;;;;;6.80;3.30;;;;;;;7.99;76.23;99090.40;125361;1310;107417;-77
2023/01/05 13:56:51;;;;;;;5.70;2.60;;;;;;;7.94;76.90;99098.52;125361;1312;107561;-78
2023/01/05 13:59:59;;;;;;;5.00;2.60;;;;;;;7.92;76.87;99101.64;125265;1312;107584;-77
2023/01/05 14:03:13;;;;;;;7.90;3.60;;;;;;;7.90;76.69;99106.06;125222;1309;107773;-78
2023/01/05 14:06:24;;;;;;;8.40;5.40;;;;;;;7.83;77.37;99107.63;125387;1316;107619;-78
2023/01/05 14:09:35;;;;;;;4.90;2.40;;;;;;;7.75;77.28;99108.86;125406;1310;107565;-77
2023/01/05 14:12:52;;;;;;;8.60;5.10;;;;;;;7.62;77.80;99111.09;125294;1316;107443;-76
2023/01/05 14:15:58;;;;;;;24.40;12.10;;;;;;;7.49;78.40;99111.75;125357;1309;107308;-76
2023/01/05 14:19:18;;;;;;;10.60;5.30;;;;;;;7.42;78.38;99111.27;125254;1310;107624;-76
2023/01/05 14:22:35;;;;;;;11.40;5.80;;;;;;;7.42;78.29;99115.30;125333;1309;107500;-77
2023/01/05 14:25:58;;;;;;;23.90;13.70;;;;;;;7.45;78.58;99115.23;125396;1310;106933;-76
2023/01/05 14:29:03;;;;;;;19.00;12.00;;;;;;;7.44;78.42;99118.54;125193;1309;108626;-76
2023/01/05 14:32:10;;;;;;;22.10;14.10;;;;;;;7.43;78.46;99111.31;125353;1312;108203;-78
2023/01/05 14:35:28;;;;;;;10.20;6.30;;;;;;;7.41;78.33;99109.05;125316;1306;107430;-76
2023/01/05 14:38:34;;;;;;;18.30;11.00;;;;;;;7.44;78.28;99114.02;125403;1309;107493;-76
2023/01/05 14:41:40;;;;;;;8.00;4.20;;;;;;;7.48;78.36;99115.59;125282;1302;107655;-76
2023/01/05 14:44:50;;;;;;;5.80;3.00;;;;;;;7.54;78.44;99119.80;125282;1308;107341;-76
2023/01/05 14:47:58;;;;;;;9.60;3.40;;;;;;;7.55;78.53;99126.77;125256;1305;107283;-76
2023/01/05 14:51:24;;;;;;;23.80;16.20;;;;;;;7.52;78.68;99127.75;125224;1310;107553;-76
2023/01/05 14:55:17;;;;;;;13.30;6.70;;;;;;;7.52;78.93;99132.00;125364;1316;107513;-78
2023/01/05 14:58:52;;;;;;;45.70;28.80;;;;;;;7.44;79.41;99128.21;125252;1312;107407;-76
2023/01/05 15:02:01;;;;;;;23.80;13.80;;;;;;;7.41;79.78;99123.00;125362;1316;107276;-76
2023/01/05 15:05:13;;;;;;;8.20;4.60;;;;;;;7.42;79.57;99129.08;125248;1316;108600;-76
2023/01/05 15:08:37;;;;;;;94.20;51.40;;;;;;;7.44;79.44;99131.94;125366;1312;107273;-76
2023/01/05 15:12:14;;;;;;;14.50;8.00;;;;;;;7.48;79.45;99132.35;125216;1302;107535;-76
2023/01/05 15:15:43;;;;;;;30.30;18.70;;;;;;;7.50;79.10;99136.08;125272;1305;107612;-78